sensor_id;sensor_type;location;lat;lon;timestamp;temperature;humidity
4566;DHT22;2295;51.050;14.608;2023-08-06T00:02:17;13.90;99.90
4566;DHT22;2295;51.050;14.608;2023-08-06T00:04:47;13.90;99.90
4566;DHT22;2295;51.050;14.608;2023-08-06T00:07:18;13.90;99.90
4566;DHT22;2295;51.050;14.608;2023-08-06T00:09:47;13.90;99.90
4566;DHT22;2295;51.050;14.608;2023-08-06T00:12:15;13.90;99.90
4566;DHT22;2295;51.050;14.608;2023-08-06T00:14:44;13.90;99.90
4566;DHT22;2295;51.050;14.608;2023-08-06T00:17:12;13.90;99.90
4566;DHT22;2295;51.050;14.608;2023-08-06T00:19:41;13.80;99.90
4566;DHT22;2295;51.050;14.608;2023-08-06T00:22:11;13.80;99.90
4566;DHT22;2295;51.050;14.608;2023-08-06T00:24:39;13.80;99.90
4566;DHT22;2295;51.050;14.608;2023-08-06T00:27:08;13.80;99.90
4566;DHT22;2295;51.050;14.608;2023-08-06T00:29:36;13.80;99.90
4566;DHT22;2295;51.050;14.608;2023-08-06T00:32:05;13.70;99.90
4566;DHT22;2295;51.050;14.608;2023-08-06T00:34:34;13.70;99.90
4566;DHT22;2295;51.050;14.608;2023-08-06T00:37:02;13.70;99.90
4566;DHT22;2295;51.050;14.608;2023-08-06T00:39:33;13.70;99.90
4566;DHT22;2295;51.050;14.608;2023-08-06T00:42:01;13.70;99.90
4566;DHT22;2295;51.050;14.608;2023-08-06T00:44:29;13.70;99.90
4566;DHT22;2295;51.050;14.608;2023-08-06T00:46:58;13.70;99.90
4566;DHT22;2295;51.050;14.608;2023-08-06T00:49:26;13.70;99.90
4566;DHT22;2295;51.050;14.608;2023-08-06T00:51:56;13.60;99.90
4566;DHT22;2295;51.050;14.608;2023-08-06T00:54:25;13.60;99.90
4566;DHT22;2295;51.050;14.608;2023-08-06T00:56:56;13.60;99.90
4566;DHT22;2295;51.050;14.608;2023-08-06T00:59:24;13.60;99.90
4566;DHT22;2295;51.050;14.608;2023-08-06T01:01:53;13.60;99.90
4566;DHT22;2295;51.050;14.608;2023-08-06T01:04:22;13.60;99.90
4566;DHT22;2295;51.050;14.608;2023-08-06T01:06:58;13.60;99.90
4566;DHT22;2295;51.050;14.608;2023-08-06T01:09:35;13.60;99.90
4566;DHT22;2295;51.050;14.608;2023-08-06T01:12:18;13.60;99.90
4566;DHT22;2295;51.050;14.608;2023-08-06T01:14:54;13.70;99.90
4566;DHT22;2295;51.050;14.608;2023-08-06T01:17:24;13.70;99.90
4566;DHT22;2295;51.050;14.608;2023-08-06T01:19:53;13.70;99.90
4566;DHT22;2295;51.050;14.608;2023-08-06T01:22:23;13.70;99.90
4566;DHT22;2295;51.050;14.608;2023-08-06T01:24:52;13.60;99.90
4566;DHT22;2295;51.050;14.608;2023-08-06T01:27:26;13.60;99.90
4566;DHT22;2295;51.050;14.608;2023-08-06T01:30:01;13.50;99.90
4566;DHT22;2295;51.050;14.608;2023-08-06T01:32:34;13.50;99.90
4566;DHT22;2295;51.050;14.608;2023-08-06T01:35:05;13.50;99.90
4566;DHT22;2295;51.050;14.608;2023-08-06T01:37:36;13.50;99.90
4566;DHT22;2295;51.050;14.608;2023-08-06T01:40:07;13.50;99.90
4566;DHT22;2295;51.050;14.608;2023-08-06T01:42:35;13.50;99.90
4566;DHT22;2295;51.050;14.608;2023-08-06T01:45:04;13.50;99.90
4566;DHT22;2295;51.050;14.608;2023-08-06T01:47:33;13.40;99.90
4566;DHT22;2295;51.050;14.608;2023-08-06T01:50:02;13.50;99.90
4566;DHT22;2295;51.050;14.608;2023-08-06T01:52:30;13.50;99.90
4566;DHT22;2295;51.050;14.608;2023-08-06T01:55:00;13.40;99.90
4566;DHT22;2295;51.050;14.608;2023-08-06T01:57:28;13.40;99.90
4566;DHT22;2295;51.050;14.608;2023-08-06T01:59:57;13.40;99.90
4566;DHT22;2295;51.050;14.608;2023-08-06T02:02:25;13.40;99.90
4566;DHT22;2295;51.050;14.608;2023-08-06T02:04:54;13.40;99.90
4566;DHT22;2295;51.050;14.608;2023-08-06T02:07:22;13.40;99.90
4566;DHT22;2295;51.050;14.608;2023-08-06T02:09:51;13.40;99.90
4566;DHT22;2295;51.050;14.608;2023-08-06T02:12:21;13.40;99.90
4566;DHT22;2295;51.050;14.608;2023-08-06T02:14:49;13.40;99.90
4566;DHT22;2295;51.050;14.608;2023-08-06T02:17:18;13.40;99.90
4566;DHT22;2295;51.050;14.608;2023-08-06T02:19:46;13.40;99.90
4566;DHT22;2295;51.050;14.608;2023-08-06T02:22:14;13.40;99.90
4566;DHT22;2295;51.050;14.608;2023-08-06T02:24:43;13.40;99.90
4566;DHT22;2295;51.050;14.608;2023-08-06T02:27:11;13.40;99.90
4566;DHT22;2295;51.050;14.608;2023-08-06T02:29:41;13.40;99.90
4566;DHT22;2295;51.050;14.608;2023-08-06T02:32:10;13.40;99.90
4566;DHT22;2295;51.050;14.608;2023-08-06T02:34:38;13.40;99.90
4566;DHT22;2295;51.050;14.608;2023-08-06T02:37:07;13.30;99.90
4566;DHT22;2295;51.050;14.608;2023-08-06T02:39:35;13.30;99.90
4566;DHT22;2295;51.050;14.608;2023-08-06T02:42:06;13.30;99.90
4566;DHT22;2295;51.050;14.608;2023-08-06T02:44:35;13.30;99.90
4566;DHT22;2295;51.050;14.608;2023-08-06T02:47:05;13.30;99.90
4566;DHT22;2295;51.050;14.608;2023-08-06T02:49:34;13.20;99.90
4566;DHT22;2295;51.050;14.608;2023-08-06T02:52:03;13.20;99.90
4566;DHT22;2295;51.050;14.608;2023-08-06T02:54:31;13.20;99.90
4566;DHT22;2295;51.050;14.608;2023-08-06T02:56:59;13.20;99.90
4566;DHT22;2295;51.050;14.608;2023-08-06T02:59:28;13.20;99.90
4566;DHT22;2295;51.050;14.608;2023-08-06T03:01:56;13.20;99.90
4566;DHT22;2295;51.050;14.608;2023-08-06T03:04:26;13.20;99.90
4566;DHT22;2295;51.050;14.608;2023-08-06T03:06:55;13.20;99.90
4566;DHT22;2295;51.050;14.608;2023-08-06T03:09:23;13.20;99.90
4566;DHT22;2295;51.050;14.608;2023-08-06T03:11:51;13.20;99.90
4566;DHT22;2295;51.050;14.608;2023-08-06T03:14:20;13.20;99.90
4566;DHT22;2295;51.050;14.608;2023-08-06T03:16:49;13.20;99.90
4566;DHT22;2295;51.050;14.608;2023-08-06T03:19:17;13.20;99.90
4566;DHT22;2295;51.050;14.608;2023-08-06T03:21:47;13.20;99.90
4566;DHT22;2295;51.050;14.608;2023-08-06T03:24:16;13.20;99.90
4566;DHT22;2295;51.050;14.608;2023-08-06T03:26:45;13.20;99.90
4566;DHT22;2295;51.050;14.608;2023-08-06T03:29:13;13.20;99.90
4566;DHT22;2295;51.050;14.608;2023-08-06T03:31:42;13.20;99.90
4566;DHT22;2295;51.050;14.608;2023-08-06T03:34:10;13.20;99.90
4566;DHT22;2295;51.050;14.608;2023-08-06T03:36:38;13.20;99.90
4566;DHT22;2295;51.050;14.608;2023-08-06T03:39:08;13.20;99.90
4566;DHT22;2295;51.050;14.608;2023-08-06T03:41:37;13.20;99.90
4566;DHT22;2295;51.050;14.608;2023-08-06T03:44:06;13.20;99.90
4566;DHT22;2295;51.050;14.608;2023-08-06T03:46:34;13.20;99.90
4566;DHT22;2295;51.050;14.608;2023-08-06T03:49:03;13.20;99.90
4566;DHT22;2295;51.050;14.608;2023-08-06T03:51:31;13.20;99.90
4566;DHT22;2295;51.050;14.608;2023-08-06T03:54:00;13.20;99.90
4566;DHT22;2295;51.050;14.608;2023-08-06T03:56:30;13.20;99.90
4566;DHT22;2295;51.050;14.608;2023-08-06T03:58:58;13.10;99.90
4566;DHT22;2295;51.050;14.608;2023-08-06T04:01:26;13.20;99.90
4566;DHT22;2295;51.050;14.608;2023-08-06T04:03:55;13.10;99.90
4566;DHT22;2295;51.050;14.608;2023-08-06T04:06:23;13.10;99.90
4566;DHT22;2295;51.050;14.608;2023-08-06T04:08:52;13.10;99.90
4566;DHT22;2295;51.050;14.608;2023-08-06T04:11:20;13.10;99.90
4566;DHT22;2295;51.050;14.608;2023-08-06T04:13:50;13.10;99.90
4566;DHT22;2295;51.050;14.608;2023-08-06T04:16:19;13.20;99.90
4566;DHT22;2295;51.050;14.608;2023-08-06T04:18:47;13.10;99.90
4566;DHT22;2295;51.050;14.608;2023-08-06T04:21:16;13.10;99.90
4566;DHT22;2295;51.050;14.608;2023-08-06T04:23:44;13.10;99.90
4566;DHT22;2295;51.050;14.608;2023-08-06T04:26:13;13.10;99.90
4566;DHT22;2295;51.050;14.608;2023-08-06T04:28:41;13.10;99.90
4566;DHT22;2295;51.050;14.608;2023-08-06T04:31:11;13.10;99.90
4566;DHT22;2295;51.050;14.608;2023-08-06T04:33:39;13.10;99.90
4566;DHT22;2295;51.050;14.608;2023-08-06T04:36:08;13.10;99.90
4566;DHT22;2295;51.050;14.608;2023-08-06T04:38:36;13.10;99.90
4566;DHT22;2295;51.050;14.608;2023-08-06T04:41:05;13.10;99.90
4566;DHT22;2295;51.050;14.608;2023-08-06T04:43:34;13.10;99.90
4566;DHT22;2295;51.050;14.608;2023-08-06T04:46:02;13.10;99.90
4566;DHT22;2295;51.050;14.608;2023-08-06T04:48:32;13.10;99.90
4566;DHT22;2295;51.050;14.608;2023-08-06T04:51:00;13.10;99.90
4566;DHT22;2295;51.050;14.608;2023-08-06T04:53:29;13.10;99.90
4566;DHT22;2295;51.050;14.608;2023-08-06T04:55:57;13.20;99.90
4566;DHT22;2295;51.050;14.608;2023-08-06T04:58:26;13.10;99.90
4566;DHT22;2295;51.050;14.608;2023-08-06T05:00:54;13.10;99.90
4566;DHT22;2295;51.050;14.608;2023-08-06T05:03:23;13.10;99.90
4566;DHT22;2295;51.050;14.608;2023-08-06T05:05:53;13.20;99.90
4566;DHT22;2295;51.050;14.608;2023-08-06T05:08:21;13.20;99.90
4566;DHT22;2295;51.050;14.608;2023-08-06T05:10:50;13.20;99.90
4566;DHT22;2295;51.050;14.608;2023-08-06T05:13:18;13.20;99.90
4566;DHT22;2295;51.050;14.608;2023-08-06T05:15:47;13.30;99.90
4566;DHT22;2295;51.050;14.608;2023-08-06T05:18:15;13.30;99.90
4566;DHT22;2295;51.050;14.608;2023-08-06T05:20:44;13.30;99.90
4566;DHT22;2295;51.050;14.608;2023-08-06T05:23:14;13.30;99.90
4566;DHT22;2295;51.050;14.608;2023-08-06T05:25:43;13.30;99.90
4566;DHT22;2295;51.050;14.608;2023-08-06T05:28:12;13.30;99.90
4566;DHT22;2295;51.050;14.608;2023-08-06T05:30:43;13.30;99.90
4566;DHT22;2295;51.050;14.608;2023-08-06T05:33:12;13.30;99.90
4566;DHT22;2295;51.050;14.608;2023-08-06T05:35:41;13.30;99.90
4566;DHT22;2295;51.050;14.608;2023-08-06T05:38:09;13.30;99.90
4566;DHT22;2295;51.050;14.608;2023-08-06T05:40:39;13.30;99.90
4566;DHT22;2295;51.050;14.608;2023-08-06T05:43:08;13.40;99.90
4566;DHT22;2295;51.050;14.608;2023-08-06T05:45:36;13.40;99.90
4566;DHT22;2295;51.050;14.608;2023-08-06T05:48:05;13.40;99.90
4566;DHT22;2295;51.050;14.608;2023-08-06T05:50:33;13.40;99.90
4566;DHT22;2295;51.050;14.608;2023-08-06T05:53:02;13.40;99.90
4566;DHT22;2295;51.050;14.608;2023-08-06T05:55:30;13.50;99.90
4566;DHT22;2295;51.050;14.608;2023-08-06T05:58:04;13.50;99.90
4566;DHT22;2295;51.050;14.608;2023-08-06T06:00:33;13.60;99.90
4566;DHT22;2295;51.050;14.608;2023-08-06T06:03:02;13.50;99.90
4566;DHT22;2295;51.050;14.608;2023-08-06T06:05:30;13.60;99.90
4566;DHT22;2295;51.050;14.608;2023-08-06T06:07:59;13.60;99.90
4566;DHT22;2295;51.050;14.608;2023-08-06T06:10:27;13.70;99.90
4566;DHT22;2295;51.050;14.608;2023-08-06T06:12:56;13.70;99.90
4566;DHT22;2295;51.050;14.608;2023-08-06T06:15:26;13.70;99.90
4566;DHT22;2295;51.050;14.608;2023-08-06T06:17:54;13.80;99.90
4566;DHT22;2295;51.050;14.608;2023-08-06T06:20:23;13.80;99.90
4566;DHT22;2295;51.050;14.608;2023-08-06T06:22:52;13.90;99.90
4566;DHT22;2295;51.050;14.608;2023-08-06T06:25:23;13.90;99.90
4566;DHT22;2295;51.050;14.608;2023-08-06T06:27:52;13.90;99.90
4566;DHT22;2295;51.050;14.608;2023-08-06T06:30:20;14.00;99.90
4566;DHT22;2295;51.050;14.608;2023-08-06T06:32:50;14.00;99.90
4566;DHT22;2295;51.050;14.608;2023-08-06T06:35:18;14.00;99.90
4566;DHT22;2295;51.050;14.608;2023-08-06T06:37:47;14.10;99.90
4566;DHT22;2295;51.050;14.608;2023-08-06T06:40:16;14.00;99.90
4566;DHT22;2295;51.050;14.608;2023-08-06T06:42:45;14.00;99.90
4566;DHT22;2295;51.050;14.608;2023-08-06T06:45:13;14.10;99.90
4566;DHT22;2295;51.050;14.608;2023-08-06T06:47:42;14.20;99.90
4566;DHT22;2295;51.050;14.608;2023-08-06T06:50:11;14.20;99.90
4566;DHT22;2295;51.050;14.608;2023-08-06T06:52:40;14.20;99.90
4566;DHT22;2295;51.050;14.608;2023-08-06T06:55:09;14.20;99.90
4566;DHT22;2295;51.050;14.608;2023-08-06T06:57:37;14.30;99.90
4566;DHT22;2295;51.050;14.608;2023-08-06T07:00:07;14.30;99.90
4566;DHT22;2295;51.050;14.608;2023-08-06T07:02:36;14.30;99.90
4566;DHT22;2295;51.050;14.608;2023-08-06T07:05:04;14.40;99.90
4566;DHT22;2295;51.050;14.608;2023-08-06T07:07:35;14.40;99.90
4566;DHT22;2295;51.050;14.608;2023-08-06T07:10:08;14.40;99.90
4566;DHT22;2295;51.050;14.608;2023-08-06T07:12:37;14.40;99.90
4566;DHT22;2295;51.050;14.608;2023-08-06T07:15:06;14.40;99.90
4566;DHT22;2295;51.050;14.608;2023-08-06T07:17:35;14.50;99.90
4566;DHT22;2295;51.050;14.608;2023-08-06T07:20:05;14.50;99.90
4566;DHT22;2295;51.050;14.608;2023-08-06T07:22:36;14.60;99.90
4566;DHT22;2295;51.050;14.608;2023-08-06T07:25:05;14.70;99.90
4566;DHT22;2295;51.050;14.608;2023-08-06T07:27:33;14.80;99.90
4566;DHT22;2295;51.050;14.608;2023-08-06T07:30:02;14.80;99.90
4566;DHT22;2295;51.050;14.608;2023-08-06T07:32:32;14.70;99.90
4566;DHT22;2295;51.050;14.608;2023-08-06T07:35:01;14.80;99.90
4566;DHT22;2295;51.050;14.608;2023-08-06T07:37:30;14.80;99.90
4566;DHT22;2295;51.050;14.608;2023-08-06T07:40:00;14.70;99.90
4566;DHT22;2295;51.050;14.608;2023-08-06T07:42:28;14.60;99.90
4566;DHT22;2295;51.050;14.608;2023-08-06T07:44:58;14.60;99.90
4566;DHT22;2295;51.050;14.608;2023-08-06T07:47:30;14.50;99.90
4566;DHT22;2295;51.050;14.608;2023-08-06T07:50:02;14.50;99.90
4566;DHT22;2295;51.050;14.608;2023-08-06T07:52:31;14.50;99.90
4566;DHT22;2295;51.050;14.608;2023-08-06T07:55:01;14.50;99.90
4566;DHT22;2295;51.050;14.608;2023-08-06T07:57:32;14.60;99.90
4566;DHT22;2295;51.050;14.608;2023-08-06T08:00:05;14.70;99.90
4566;DHT22;2295;51.050;14.608;2023-08-06T08:02:34;14.70;99.90
4566;DHT22;2295;51.050;14.608;2023-08-06T08:05:02;14.80;99.90
4566;DHT22;2295;51.050;14.608;2023-08-06T08:07:31;14.90;99.90
4566;DHT22;2295;51.050;14.608;2023-08-06T08:10:02;15.00;99.90
4566;DHT22;2295;51.050;14.608;2023-08-06T08:12:32;15.00;99.90
4566;DHT22;2295;51.050;14.608;2023-08-06T08:15:01;15.10;99.90
4566;DHT22;2295;51.050;14.608;2023-08-06T08:17:30;15.00;99.90
4566;DHT22;2295;51.050;14.608;2023-08-06T08:19:59;14.80;99.90
4566;DHT22;2295;51.050;14.608;2023-08-06T08:22:27;14.60;99.90
4566;DHT22;2295;51.050;14.608;2023-08-06T08:24:56;14.50;99.90
4566;DHT22;2295;51.050;14.608;2023-08-06T08:27:26;14.40;99.90
4566;DHT22;2295;51.050;14.608;2023-08-06T08:29:54;14.30;99.90
4566;DHT22;2295;51.050;14.608;2023-08-06T08:32:24;14.30;99.90
4566;DHT22;2295;51.050;14.608;2023-08-06T08:34:58;14.30;99.90
4566;DHT22;2295;51.050;14.608;2023-08-06T08:37:29;14.20;99.90
4566;DHT22;2295;51.050;14.608;2023-08-06T08:39:58;14.20;99.90
4566;DHT22;2295;51.050;14.608;2023-08-06T08:42:29;14.30;99.90
4566;DHT22;2295;51.050;14.608;2023-08-06T08:44:58;14.40;99.90
4566;DHT22;2295;51.050;14.608;2023-08-06T08:47:26;14.50;99.90
4566;DHT22;2295;51.050;14.608;2023-08-06T08:49:57;14.50;99.90
4566;DHT22;2295;51.050;14.608;2023-08-06T08:52:27;14.50;99.90
4566;DHT22;2295;51.050;14.608;2023-08-06T08:55:01;14.50;99.90
4566;DHT22;2295;51.050;14.608;2023-08-06T08:57:31;14.50;99.90
4566;DHT22;2295;51.050;14.608;2023-08-06T09:00:00;14.40;99.90
4566;DHT22;2295;51.050;14.608;2023-08-06T09:02:29;14.30;99.90
4566;DHT22;2295;51.050;14.608;2023-08-06T09:04:59;14.20;99.90
4566;DHT22;2295;51.050;14.608;2023-08-06T09:07:36;14.20;99.90
4566;DHT22;2295;51.050;14.608;2023-08-06T09:10:08;14.30;99.90
4566;DHT22;2295;51.050;14.608;2023-08-06T09:12:40;14.40;99.90
4566;DHT22;2295;51.050;14.608;2023-08-06T09:15:12;14.40;99.90
4566;DHT22;2295;51.050;14.608;2023-08-06T09:17:41;14.20;99.90
4566;DHT22;2295;51.050;14.608;2023-08-06T09:20:11;14.20;99.90
4566;DHT22;2295;51.050;14.608;2023-08-06T09:22:40;14.10;99.90
4566;DHT22;2295;51.050;14.608;2023-08-06T09:25:09;14.10;99.90
4566;DHT22;2295;51.050;14.608;2023-08-06T09:27:40;14.00;99.90
4566;DHT22;2295;51.050;14.608;2023-08-06T09:30:08;14.10;99.90
4566;DHT22;2295;51.050;14.608;2023-08-06T09:32:46;14.30;99.90
4566;DHT22;2295;51.050;14.608;2023-08-06T09:35:16;14.60;99.90
4566;DHT22;2295;51.050;14.608;2023-08-06T09:37:45;14.90;99.90
4566;DHT22;2295;51.050;14.608;2023-08-06T09:40:29;15.00;99.90
4566;DHT22;2295;51.050;14.608;2023-08-06T09:43:00;14.80;99.90
4566;DHT22;2295;51.050;14.608;2023-08-06T09:45:33;14.80;99.90
4566;DHT22;2295;51.050;14.608;2023-08-06T09:48:04;14.70;99.90
4566;DHT22;2295;51.050;14.608;2023-08-06T09:50:38;14.70;99.90
4566;DHT22;2295;51.050;14.608;2023-08-06T09:53:10;14.70;99.90
4566;DHT22;2295;51.050;14.608;2023-08-06T09:55:38;14.70;99.90
4566;DHT22;2295;51.050;14.608;2023-08-06T09:58:10;14.70;99.90
4566;DHT22;2295;51.050;14.608;2023-08-06T10:00:38;14.70;99.90
4566;DHT22;2295;51.050;14.608;2023-08-06T10:03:08;14.70;99.90
4566;DHT22;2295;51.050;14.608;2023-08-06T10:05:38;14.80;99.90
4566;DHT22;2295;51.050;14.608;2023-08-06T10:08:07;14.90;99.90
4566;DHT22;2295;51.050;14.608;2023-08-06T10:10:35;14.90;99.90
4566;DHT22;2295;51.050;14.608;2023-08-06T10:13:06;14.90;99.90
4566;DHT22;2295;51.050;14.608;2023-08-06T10:15:37;14.80;99.90
4566;DHT22;2295;51.050;14.608;2023-08-06T10:18:06;14.90;99.90
4566;DHT22;2295;51.050;14.608;2023-08-06T10:20:36;14.90;99.90
4566;DHT22;2295;51.050;14.608;2023-08-06T10:23:05;14.90;99.90
4566;DHT22;2295;51.050;14.608;2023-08-06T10:25:36;15.00;99.90
4566;DHT22;2295;51.050;14.608;2023-08-06T10:28:09;15.00;99.90
4566;DHT22;2295;51.050;14.608;2023-08-06T10:30:44;15.20;99.90
4566;DHT22;2295;51.050;14.608;2023-08-06T10:33:13;15.40;99.90
4566;DHT22;2295;51.050;14.608;2023-08-06T10:35:47;15.50;99.90
4566;DHT22;2295;51.050;14.608;2023-08-06T10:38:18;15.50;99.90
4566;DHT22;2295;51.050;14.608;2023-08-06T10:40:50;15.50;99.90
4566;DHT22;2295;51.050;14.608;2023-08-06T10:43:28;15.50;99.90
4566;DHT22;2295;51.050;14.608;2023-08-06T10:45:59;15.30;99.90
4566;DHT22;2295;51.050;14.608;2023-08-06T10:48:33;15.30;99.90
4566;DHT22;2295;51.050;14.608;2023-08-06T10:51:05;15.10;99.90
4566;DHT22;2295;51.050;14.608;2023-08-06T10:53:37;15.00;99.90
4566;DHT22;2295;51.050;14.608;2023-08-06T10:56:12;14.90;99.90
4566;DHT22;2295;51.050;14.608;2023-08-06T10:58:41;15.00;99.90
4566;DHT22;2295;51.050;14.608;2023-08-06T11:01:11;15.10;99.90
4566;DHT22;2295;51.050;14.608;2023-08-06T11:03:41;15.30;99.90
4566;DHT22;2295;51.050;14.608;2023-08-06T11:06:11;15.40;99.90
4566;DHT22;2295;51.050;14.608;2023-08-06T11:08:48;15.70;99.90
4566;DHT22;2295;51.050;14.608;2023-08-06T11:11:17;15.70;99.90
4566;DHT22;2295;51.050;14.608;2023-08-06T11:13:47;15.70;99.90
4566;DHT22;2295;51.050;14.608;2023-08-06T11:16:18;15.70;99.90
4566;DHT22;2295;51.050;14.608;2023-08-06T11:18:50;15.80;99.90
4566;DHT22;2295;51.050;14.608;2023-08-06T11:21:20;15.90;99.90
4566;DHT22;2295;51.050;14.608;2023-08-06T11:23:51;16.00;99.90
4566;DHT22;2295;51.050;14.608;2023-08-06T11:26:21;16.20;99.90
4566;DHT22;2295;51.050;14.608;2023-08-06T11:28:51;16.20;99.90
4566;DHT22;2295;51.050;14.608;2023-08-06T11:31:24;16.00;99.90
4566;DHT22;2295;51.050;14.608;2023-08-06T11:33:53;15.80;99.90
4566;DHT22;2295;51.050;14.608;2023-08-06T11:36:32;15.80;99.90
4566;DHT22;2295;51.050;14.608;2023-08-06T11:39:01;15.80;99.90
4566;DHT22;2295;51.050;14.608;2023-08-06T11:41:30;15.90;99.90
4566;DHT22;2295;51.050;14.608;2023-08-06T11:43:59;15.90;99.90
4566;DHT22;2295;51.050;14.608;2023-08-06T11:46:29;16.00;99.90
4566;DHT22;2295;51.050;14.608;2023-08-06T11:49:17;16.10;99.90
4566;DHT22;2295;51.050;14.608;2023-08-06T11:51:48;16.10;99.90
4566;DHT22;2295;51.050;14.608;2023-08-06T11:54:30;16.20;99.90
4566;DHT22;2295;51.050;14.608;2023-08-06T11:57:01;16.20;99.90
4566;DHT22;2295;51.050;14.608;2023-08-06T11:59:29;16.10;99.90
4566;DHT22;2295;51.050;14.608;2023-08-06T12:02:01;16.00;99.90
4566;DHT22;2295;51.050;14.608;2023-08-06T12:07:16;16.00;99.90
4566;DHT22;2295;51.050;14.608;2023-08-06T12:09:44;16.00;99.90
4566;DHT22;2295;51.050;14.608;2023-08-06T12:12:13;15.90;99.90
4566;DHT22;2295;51.050;14.608;2023-08-06T12:14:44;15.80;99.90
4566;DHT22;2295;51.050;14.608;2023-08-06T12:17:14;15.80;99.90
4566;DHT22;2295;51.050;14.608;2023-08-06T12:19:47;15.70;99.90
4566;DHT22;2295;51.050;14.608;2023-08-06T12:22:16;15.70;99.90
4566;DHT22;2295;51.050;14.608;2023-08-06T12:24:47;15.70;99.90
4566;DHT22;2295;51.050;14.608;2023-08-06T12:27:16;15.60;99.90
4566;DHT22;2295;51.050;14.608;2023-08-06T12:29:45;15.50;99.90
4566;DHT22;2295;51.050;14.608;2023-08-06T12:32:15;15.50;99.90
4566;DHT22;2295;51.050;14.608;2023-08-06T12:34:44;15.50;99.90
4566;DHT22;2295;51.050;14.608;2023-08-06T12:37:23;15.50;99.90
4566;DHT22;2295;51.050;14.608;2023-08-06T12:39:52;15.40;99.90
4566;DHT22;2295;51.050;14.608;2023-08-06T12:42:20;15.30;99.90
4566;DHT22;2295;51.050;14.608;2023-08-06T12:44:55;15.20;99.90
4566;DHT22;2295;51.050;14.608;2023-08-06T12:47:24;15.10;99.90
4566;DHT22;2295;51.050;14.608;2023-08-06T12:49:53;14.90;99.90
4566;DHT22;2295;51.050;14.608;2023-08-06T12:52:21;14.90;99.90
4566;DHT22;2295;51.050;14.608;2023-08-06T12:54:50;14.80;99.90
4566;DHT22;2295;51.050;14.608;2023-08-06T12:57:18;14.70;99.90
4566;DHT22;2295;51.050;14.608;2023-08-06T12:59:46;14.70;99.90
4566;DHT22;2295;51.050;14.608;2023-08-06T13:02:15;14.70;99.90
4566;DHT22;2295;51.050;14.608;2023-08-06T13:04:47;14.70;99.90
4566;DHT22;2295;51.050;14.608;2023-08-06T13:07:15;14.70;99.90
4566;DHT22;2295;51.050;14.608;2023-08-06T13:09:44;14.80;99.90
4566;DHT22;2295;51.050;14.608;2023-08-06T13:12:12;14.80;99.90
4566;DHT22;2295;51.050;14.608;2023-08-06T13:14:41;14.90;99.90
4566;DHT22;2295;51.050;14.608;2023-08-06T13:17:09;15.00;99.90
4566;DHT22;2295;51.050;14.608;2023-08-06T13:19:37;15.10;99.90
4566;DHT22;2295;51.050;14.608;2023-08-06T13:22:07;15.20;99.90
4566;DHT22;2295;51.050;14.608;2023-08-06T13:24:36;15.40;99.90
4566;DHT22;2295;51.050;14.608;2023-08-06T13:27:05;15.50;99.90
4566;DHT22;2295;51.050;14.608;2023-08-06T13:29:36;15.50;99.90
4566;DHT22;2295;51.050;14.608;2023-08-06T13:32:05;15.40;99.90
4566;DHT22;2295;51.050;14.608;2023-08-06T13:34:33;15.40;99.90
4566;DHT22;2295;51.050;14.608;2023-08-06T13:37:02;15.30;99.90
4566;DHT22;2295;51.050;14.608;2023-08-06T13:39:32;15.30;99.90
4566;DHT22;2295;51.050;14.608;2023-08-06T13:42:00;15.30;99.90
4566;DHT22;2295;51.050;14.608;2023-08-06T13:44:29;15.50;99.90
4566;DHT22;2295;51.050;14.608;2023-08-06T13:47:05;15.70;99.90
4566;DHT22;2295;51.050;14.608;2023-08-06T13:49:34;15.60;99.90
4566;DHT22;2295;51.050;14.608;2023-08-06T13:52:02;15.60;99.90
4566;DHT22;2295;51.050;14.608;2023-08-06T13:54:49;15.60;99.90
4566;DHT22;2295;51.050;14.608;2023-08-06T13:57:17;15.50;99.90
4566;DHT22;2295;51.050;14.608;2023-08-06T13:59:46;15.60;99.90
4566;DHT22;2295;51.050;14.608;2023-08-06T14:02:14;15.60;99.90
4566;DHT22;2295;51.050;14.608;2023-08-06T14:04:46;15.60;99.90
4566;DHT22;2295;51.050;14.608;2023-08-06T14:07:20;15.50;99.90
4566;DHT22;2295;51.050;14.608;2023-08-06T14:09:50;15.40;99.90
4566;DHT22;2295;51.050;14.608;2023-08-06T14:12:21;15.50;99.90
4566;DHT22;2295;51.050;14.608;2023-08-06T14:14:50;15.60;99.90
4566;DHT22;2295;51.050;14.608;2023-08-06T14:17:18;15.60;99.90
4566;DHT22;2295;51.050;14.608;2023-08-06T14:19:47;15.60;99.90
4566;DHT22;2295;51.050;14.608;2023-08-06T14:22:15;15.60;99.90
4566;DHT22;2295;51.050;14.608;2023-08-06T14:24:44;15.70;99.90
4566;DHT22;2295;51.050;14.608;2023-08-06T14:27:15;15.70;99.90
4566;DHT22;2295;51.050;14.608;2023-08-06T14:29:44;15.70;99.90
4566;DHT22;2295;51.050;14.608;2023-08-06T14:32:12;15.70;99.90
4566;DHT22;2295;51.050;14.608;2023-08-06T14:34:45;15.80;99.90
4566;DHT22;2295;51.050;14.608;2023-08-06T14:37:14;15.80;99.90
4566;DHT22;2295;51.050;14.608;2023-08-06T14:39:42;15.90;99.90
4566;DHT22;2295;51.050;14.608;2023-08-06T14:42:11;16.00;99.90
4566;DHT22;2295;51.050;14.608;2023-08-06T14:44:41;16.00;99.90
4566;DHT22;2295;51.050;14.608;2023-08-06T14:47:09;15.90;99.90
4566;DHT22;2295;51.050;14.608;2023-08-06T14:49:38;15.70;99.90
4566;DHT22;2295;51.050;14.608;2023-08-06T14:52:07;15.60;99.90
4566;DHT22;2295;51.050;14.608;2023-08-06T14:54:35;15.50;99.90
4566;DHT22;2295;51.050;14.608;2023-08-06T14:57:04;15.40;99.90
4566;DHT22;2295;51.050;14.608;2023-08-06T14:59:32;15.40;99.90
4566;DHT22;2295;51.050;14.608;2023-08-06T15:02:02;15.30;99.90
4566;DHT22;2295;51.050;14.608;2023-08-06T15:04:31;15.30;99.90
4566;DHT22;2295;51.050;14.608;2023-08-06T15:06:59;15.30;99.90
4566;DHT22;2295;51.050;14.608;2023-08-06T15:09:28;15.30;99.90
4566;DHT22;2295;51.050;14.608;2023-08-06T15:11:56;15.30;99.90
4566;DHT22;2295;51.050;14.608;2023-08-06T15:14:28;15.40;99.90
4566;DHT22;2295;51.050;14.608;2023-08-06T15:16:56;15.40;99.90
4566;DHT22;2295;51.050;14.608;2023-08-06T15:19:26;15.40;99.90
4566;DHT22;2295;51.050;14.608;2023-08-06T15:21:54;15.20;99.90
4566;DHT22;2295;51.050;14.608;2023-08-06T15:24:23;15.20;99.90
4566;DHT22;2295;51.050;14.608;2023-08-06T15:26:51;15.20;99.90
4566;DHT22;2295;51.050;14.608;2023-08-06T15:29:20;15.20;99.90
4566;DHT22;2295;51.050;14.608;2023-08-06T15:31:49;15.10;99.90
4566;DHT22;2295;51.050;14.608;2023-08-06T15:34:19;15.10;99.90
4566;DHT22;2295;51.050;14.608;2023-08-06T15:36:50;15.10;99.90
4566;DHT22;2295;51.050;14.608;2023-08-06T15:39:19;15.10;99.90
4566;DHT22;2295;51.050;14.608;2023-08-06T15:41:47;15.10;99.90
4566;DHT22;2295;51.050;14.608;2023-08-06T15:44:22;15.20;99.90
4566;DHT22;2295;51.050;14.608;2023-08-06T15:46:53;15.20;99.90
4566;DHT22;2295;51.050;14.608;2023-08-06T15:49:22;15.20;99.90
4566;DHT22;2295;51.050;14.608;2023-08-06T15:51:52;15.20;99.90
4566;DHT22;2295;51.050;14.608;2023-08-06T15:54:21;15.30;99.90
4566;DHT22;2295;51.050;14.608;2023-08-06T15:56:49;15.20;99.90
4566;DHT22;2295;51.050;14.608;2023-08-06T15:59:25;15.20;99.90
4566;DHT22;2295;51.050;14.608;2023-08-06T16:01:55;15.20;99.90
4566;DHT22;2295;51.050;14.608;2023-08-06T16:04:26;15.10;99.90